createdAt,value
2023-04-19T00:00:26.303Z,102142.53
2023-04-19T00:02:55.100Z,102146.28
2023-04-19T00:05:24.705Z,102141.94
2023-04-19T00:07:53.357Z,102140.44
2023-04-19T00:10:23.321Z,102146.97
2023-04-19T00:12:52.117Z,102148.13
2023-04-19T00:15:20.882Z,102144.84
2023-04-19T00:17:49.424Z,102149.56
2023-04-19T00:20:18.127Z,102161.78
2023-04-19T00:22:46.626Z,102144.84
2023-04-19T00:25:15.207Z,102146.28
2023-04-19T00:27:45.156Z,102156.44
2023-04-19T00:30:14.799Z,102149.09
2023-04-19T00:32:43.413Z,102153.09
2023-04-19T00:35:12.053Z,102151.59
2023-04-19T00:37:40.511Z,102147.75
2023-04-19T00:40:10.128Z,102148.13
2023-04-19T00:42:38.894Z,102147.41
2023-04-19T00:45:10.038Z,102141.44
2023-04-19T00:47:38.982Z,102142.25
2023-04-19T00:50:08.980Z,102142.69
2023-04-19T00:52:37.458Z,102146.72
2023-04-19T00:55:07.250Z,102141.59
2023-04-19T00:57:36.581Z,102145.25
2023-04-19T01:00:06.736Z,102140.22
2023-04-19T01:02:36.938Z,102143.72
2023-04-19T01:05:05.904Z,102145.94
2023-04-19T01:07:35.448Z,102144.44
2023-04-19T01:10:04.103Z,102148.84
2023-04-19T01:12:32.502Z,102145.44
2023-04-19T01:15:00.918Z,102139.19
2023-04-19T01:17:30.615Z,102137.63
2023-04-19T01:20:02.531Z,102144.91
2023-04-19T01:22:33.570Z,102145.69
2023-04-19T01:25:02.465Z,102145.06
2023-04-19T01:27:30.972Z,102147.66
2023-04-19T01:29:59.450Z,102148.00
2023-04-19T01:32:28.701Z,102150.00
2023-04-19T01:34:58.326Z,102148.50
2023-04-19T01:37:26.793Z,102148.75
2023-04-19T01:39:56.768Z,102145.88
2023-04-19T01:42:25.179Z,102154.81
2023-04-19T01:44:54.127Z,102155.28
2023-04-19T01:47:25.188Z,102162.44
2023-04-19T01:49:53.434Z,102162.16
2023-04-19T01:52:21.805Z,102157.13
2023-04-19T01:54:50.314Z,102161.50
2023-04-19T01:57:20.118Z,102158.16
2023-04-19T01:59:49.223Z,102160.28
2023-04-19T02:02:17.855Z,102158.59
2023-04-19T02:04:46.323Z,102156.84
2023-04-19T02:07:14.774Z,102164.03
2023-04-19T02:09:43.239Z,102152.72
2023-04-19T02:12:11.578Z,102155.22
2023-04-19T02:14:41.575Z,102164.22
2023-04-19T02:17:10.744Z,102159.78
2023-04-19T02:19:40.510Z,102159.13
2023-04-19T02:22:09.035Z,102158.44
2023-04-19T02:24:40.730Z,102157.63
2023-04-19T02:27:09.437Z,102149.38
2023-04-19T02:29:37.866Z,102144.91
2023-04-19T02:32:07.994Z,102142.41
2023-04-19T02:34:36.836Z,102147.97
2023-04-19T02:37:05.631Z,102145.47
2023-04-19T02:39:34.471Z,102139.75
2023-04-19T02:42:02.966Z,102142.41
2023-04-19T02:44:31.507Z,102140.69
2023-04-19T02:46:59.913Z,102143.41
2023-04-19T02:49:36.534Z,102142.41
2023-04-19T02:52:05.912Z,102137.34
2023-04-19T02:54:35.243Z,102143.63
2023-04-19T02:57:03.850Z,102140.31
2023-04-19T02:59:32.370Z,102140.97
2023-04-19T03:02:03.621Z,102142.84
2023-04-19T03:04:34.724Z,102141.09
2023-04-19T03:07:03.320Z,102143.69
2023-04-19T03:09:31.959Z,102135.78
2023-04-19T03:12:01.362Z,102135.09
2023-04-19T03:14:29.926Z,102142.06
2023-04-19T03:16:58.384Z,102139.56
2023-04-19T03:19:27.379Z,102142.06
2023-04-19T03:21:58.279Z,102143.91
2023-04-19T03:24:29.650Z,102143.03
2023-04-19T03:27:00.361Z,102146.72
2023-04-19T03:29:34.810Z,102139.84
2023-04-19T03:32:10.333Z,102135.38
2023-04-19T03:34:38.910Z,102142.31
2023-04-19T03:37:08.852Z,102146.72
2023-04-19T03:39:37.476Z,102145.69
2023-04-19T03:42:09.139Z,102145.78
2023-04-19T03:45:13.662Z,102138.69
2023-04-19T03:47:47.695Z,102138.44
2023-04-19T03:50:17.375Z,102144.50
2023-04-19T03:52:51.420Z,102144.34
2023-04-19T03:55:20.224Z,102147.84
2023-04-19T03:57:49.046Z,102140.44
2023-04-19T04:00:34.551Z,102150.97
2023-04-19T04:03:03.338Z,102151.75
2023-04-19T04:05:32.440Z,102152.63
2023-04-19T04:08:03.946Z,102153.31
2023-04-19T04:10:33.603Z,102152.19
2023-04-19T04:13:02.501Z,102157.09
2023-04-19T04:15:50.994Z,102156.19
2023-04-19T04:18:20.082Z,102154.09
2023-04-19T04:20:49.495Z,102156.03
2023-04-19T04:23:21.676Z,102153.03
2023-04-19T04:26:00.893Z,102144.03
2023-04-19T04:28:39.579Z,102141.94
2023-04-19T04:31:08.289Z,102149.63
2023-04-19T04:33:37.428Z,102152.03
2023-04-19T04:36:09.708Z,102154.44
2023-04-19T04:38:40.139Z,102150.34
2023-04-19T04:41:09.032Z,102151.84
2023-04-19T04:43:38.492Z,102160.69
2023-04-19T04:46:07.770Z,102164.84
2023-04-19T04:48:40.578Z,102162.53
2023-04-19T04:51:09.235Z,102164.75
2023-04-19T04:53:39.759Z,102167.25
2023-04-19T04:56:09.427Z,102174.06
2023-04-19T04:58:37.987Z,102178.28
2023-04-19T05:01:09.990Z,102173.53
2023-04-19T05:03:41.673Z,102177.84
2023-04-19T05:06:15.234Z,102177.13
2023-04-19T05:08:46.105Z,102175.59
2023-04-19T05:11:23.211Z,102172.25
2023-04-19T05:13:51.773Z,102178.00
2023-04-19T05:16:20.447Z,102186.78
2023-04-19T05:18:50.797Z,102181.19
2023-04-19T05:21:20.055Z,102181.69
2023-04-19T05:23:50.118Z,102183.06
2023-04-19T05:26:19.565Z,102176.72
2023-04-19T05:28:50.017Z,102169.78
2023-04-19T05:31:28.569Z,102175.63
2023-04-19T05:34:33.555Z,102174.28
2023-04-19T05:37:04.148Z,102173.88
2023-04-19T05:39:34.612Z,102178.34
2023-04-19T05:42:03.294Z,102189.19
2023-04-19T05:44:32.169Z,102189.63
2023-04-19T05:47:00.934Z,102185.75
2023-04-19T05:49:49.863Z,102187.78
2023-04-19T05:52:23.812Z,102191.59
2023-04-19T05:54:57.495Z,102189.41
2023-04-19T05:57:26.505Z,102192.13
2023-04-19T05:59:55.203Z,102199.88
2023-04-19T06:02:27.427Z,102196.44
2023-04-19T06:04:59.480Z,102192.69
2023-04-19T06:07:34.086Z,102189.38
2023-04-19T06:10:09.870Z,102187.81
2023-04-19T06:12:38.608Z,102195.94
2023-04-19T06:15:09.194Z,102199.00
2023-04-19T06:17:38.101Z,102190.97
2023-04-19T06:20:08.770Z,102191.72
2023-04-19T06:22:42.850Z,102199.69
2023-04-19T06:25:13.383Z,102200.31
2023-04-19T06:27:42.087Z,102198.56
2023-04-19T06:30:11.481Z,102196.50
2023-04-19T06:32:40.292Z,102200.81
2023-04-19T06:35:11.257Z,102203.34
2023-04-19T06:37:39.828Z,102198.84
2023-04-19T06:40:09.650Z,102202.44
2023-04-19T06:42:39.948Z,102202.22
2023-04-19T06:45:09.733Z,102201.34
2023-04-19T06:47:38.349Z,102204.03
2023-04-19T06:50:08.387Z,102201.59
2023-04-19T06:52:36.910Z,102206.44
2023-04-19T06:55:06.004Z,102210.31
2023-04-19T06:57:34.752Z,102201.78
2023-04-19T07:00:06.787Z,102205.25
2023-04-19T07:02:35.580Z,102204.13
2023-04-19T07:05:04.257Z,102205.84
2023-04-19T07:07:33.556Z,102203.16
2023-04-19T07:10:02.145Z,102198.41
2023-04-19T07:12:30.853Z,102199.47
2023-04-19T07:14:59.505Z,102194.34
2023-04-19T07:17:29.627Z,102200.75
2023-04-19T07:19:58.366Z,102196.91
2023-04-19T07:22:27.034Z,102191.34
2023-04-19T07:24:56.047Z,102198.63
2023-04-19T07:27:25.030Z,102194.97
2023-04-19T07:29:53.898Z,102190.84
2023-04-19T07:32:22.798Z,102190.75
2023-04-19T07:34:53.291Z,102188.72
2023-04-19T07:37:21.994Z,102195.72
2023-04-19T07:39:50.574Z,102201.34
2023-04-19T07:42:19.400Z,102198.94
2023-04-19T07:44:47.999Z,102200.09
2023-04-19T07:47:16.743Z,102203.25
2023-04-19T07:49:45.390Z,102204.44
2023-04-19T07:52:15.581Z,102202.78
2023-04-19T07:54:44.331Z,102198.94
2023-04-19T07:57:12.970Z,102202.59
2023-04-19T07:59:41.557Z,102203.34
2023-04-19T08:02:10.222Z,102195.56
2023-04-19T08:04:40.068Z,102200.38
2023-04-19T08:07:09.680Z,102206.59
2023-04-19T08:09:39.768Z,102204.16
2023-04-19T08:12:09.353Z,102201.16
2023-04-19T08:14:56.379Z,102203.31
2023-04-19T08:17:34.810Z,102210.44
2023-04-19T08:20:11.278Z,102203.97
2023-04-19T08:22:40.941Z,102200.53
2023-04-19T08:25:11.716Z,102200.97
2023-04-19T08:27:40.426Z,102205.59
2023-04-19T08:30:11.098Z,102188.34
2023-04-19T08:32:39.920Z,102194.91
2023-04-19T08:35:09.407Z,102190.28
2023-04-19T08:37:37.993Z,102178.75
2023-04-19T08:40:08.707Z,102178.13
2023-04-19T08:42:39.015Z,102180.94
2023-04-19T08:45:26.782Z,102190.16
2023-04-19T08:48:01.321Z,102191.97
2023-04-19T08:50:36.040Z,102187.06
2023-04-19T08:55:58.438Z,102191.53
2023-04-19T08:58:50.214Z,102190.34
2023-04-19T09:04:02.501Z,102181.97
2023-04-19T09:06:39.321Z,102175.50
2023-04-19T09:11:53.367Z,102174.50
2023-04-19T09:14:24.168Z,102178.56
2023-04-19T09:16:53.480Z,102173.56
2023-04-19T09:19:25.274Z,102175.28
2023-04-19T09:21:55.220Z,102172.72
2023-04-19T09:27:12.568Z,102166.19
2023-04-19T09:29:42.684Z,102170.38
2023-04-19T09:32:12.460Z,102167.91
2023-04-19T09:34:55.983Z,102166.09
2023-04-19T09:37:39.129Z,102163.88
2023-04-19T09:40:28.214Z,102161.16
2023-04-19T09:45:41.284Z,102159.06
2023-04-19T09:48:10.647Z,102161.63
2023-04-19T09:50:58.520Z,102154.66
2023-04-19T09:53:31.323Z,102154.91
2023-04-19T09:56:02.594Z,102159.06
2023-04-19T09:58:42.535Z,102159.81
2023-04-19T10:01:22.348Z,102149.56
2023-04-19T10:03:53.127Z,102150.84
2023-04-19T10:08:56.181Z,102146.84
2023-04-19T10:11:27.867Z,102148.69
2023-04-19T10:14:01.523Z,102156.22
2023-04-19T10:16:32.898Z,102147.00
2023-04-19T10:19:03.736Z,102154.53
2023-04-19T10:21:33.575Z,102150.13
2023-04-19T10:24:02.967Z,102148.47
2023-04-19T10:26:31.729Z,102152.06
2023-04-19T10:29:00.323Z,102147.75
2023-04-19T10:31:29.053Z,102143.44
2023-04-19T10:34:00.508Z,102135.56
2023-04-19T10:36:30.272Z,102150.03
2023-04-19T10:38:58.838Z,102141.72
2023-04-19T10:41:59.905Z,102151.09
2023-04-19T10:44:28.569Z,102141.50
2023-04-19T10:46:57.212Z,102143.09
2023-04-19T10:49:29.485Z,102138.06
2023-04-19T10:52:00.306Z,102134.22
2023-04-19T10:54:34.536Z,102126.47
2023-04-19T10:57:05.289Z,102134.50
2023-04-19T10:59:34.708Z,102136.44
2023-04-19T11:02:04.787Z,102135.59
2023-04-19T11:05:14.651Z,102130.97
2023-04-19T11:07:45.034Z,102125.34
2023-04-19T11:10:13.952Z,102128.13
2023-04-19T11:12:46.403Z,102121.19
2023-04-19T11:15:15.267Z,102133.41
2023-04-19T11:17:43.992Z,102124.63
2023-04-19T11:20:14.949Z,102124.22
2023-04-19T11:22:47.147Z,102125.22
2023-04-19T11:25:18.392Z,102132.34
2023-04-19T11:27:48.940Z,102117.38
2023-04-19T11:30:21.694Z,102136.91
2023-04-19T11:32:51.806Z,102119.59
2023-04-19T11:35:22.256Z,102131.91
2023-04-19T11:37:53.275Z,102130.25
2023-04-19T11:40:22.475Z,102127.09
2023-04-19T11:42:56.802Z,102123.44
2023-04-19T11:45:30.867Z,102122.78
2023-04-19T11:48:01.552Z,102125.06
2023-04-19T11:50:35.541Z,102119.81
2023-04-19T11:53:17.370Z,102116.16
2023-04-19T11:55:47.956Z,102113.47
2023-04-19T11:58:32.302Z,102120.53
2023-04-19T12:01:06.954Z,102111.94
2023-04-19T12:03:36.350Z,102109.00
2023-04-19T12:06:09.395Z,102116.22
2023-04-19T12:08:40.553Z,102099.44
2023-04-19T12:11:08.910Z,102107.78
2023-04-19T12:13:37.853Z,102110.78
2023-04-19T12:16:06.973Z,102101.47
2023-04-19T12:18:49.319Z,102110.13
2023-04-19T12:21:32.333Z,102114.78
2023-04-19T12:24:05.065Z,102105.66
2023-04-19T12:26:33.926Z,102109.94
2023-04-19T12:29:03.517Z,102099.84
2023-04-19T12:31:33.868Z,102100.41
2023-04-19T12:34:02.582Z,102096.84
2023-04-19T12:36:31.769Z,102100.78
2023-04-19T12:39:02.469Z,102104.41
2023-04-19T12:41:31.280Z,102093.88
2023-04-19T12:43:59.866Z,102094.72
2023-04-19T12:46:28.692Z,102093.94
2023-04-19T12:48:57.388Z,102099.09
2023-04-19T12:51:26.053Z,102094.34
2023-04-19T12:53:54.762Z,102094.09
2023-04-19T12:56:25.089Z,102102.53
2023-04-19T12:58:54.141Z,102098.78
2023-04-19T13:01:23.805Z,102094.03
2023-04-19T13:03:53.269Z,102101.28
2023-04-19T13:06:23.373Z,102098.59
2023-04-19T13:08:53.004Z,102088.09
2023-04-19T13:11:24.894Z,102093.22
2023-04-19T13:13:54.444Z,102094.56
2023-04-19T13:16:23.360Z,102092.25
2023-04-19T13:18:52.823Z,102092.03
2023-04-19T13:21:21.480Z,102084.25
2023-04-19T13:23:50.091Z,102092.97
2023-04-19T13:26:18.779Z,102085.56
2023-04-19T13:28:49.000Z,102089.22
2023-04-19T13:31:18.046Z,102082.97
2023-04-19T13:33:46.736Z,102083.78
2023-04-19T13:36:15.481Z,102078.88
2023-04-19T13:38:44.140Z,102076.75
2023-04-19T13:41:12.766Z,102075.97
2023-04-19T13:43:41.410Z,102074.78
2023-04-19T13:46:11.713Z,102071.69
2023-04-19T13:48:40.355Z,102071.94
2023-04-19T13:51:09.082Z,102066.47
2023-04-19T13:53:37.569Z,102072.88
2023-04-19T13:56:09.407Z,102066.56
2023-04-19T13:58:37.960Z,102065.16
2023-04-19T14:01:06.615Z,102062.16
2023-04-19T14:03:36.963Z,102065.16
2023-04-19T14:06:06.438Z,102053.63
2023-04-19T14:08:35.019Z,102053.75
2023-04-19T14:11:03.598Z,102065.06
2023-04-19T14:13:32.223Z,102070.47
2023-04-19T14:16:00.841Z,102067.78
2023-04-19T14:18:29.320Z,102059.25
2023-04-19T14:20:59.373Z,102070.69
2023-04-19T14:23:28.651Z,102056.47
2023-04-19T14:25:57.267Z,102052.50
2023-04-19T14:28:25.870Z,102057.19
2023-04-19T14:30:54.417Z,102057.75
2023-04-19T14:33:23.037Z,102063.22
2023-04-19T14:35:51.754Z,102060.75
2023-04-19T14:38:21.649Z,102056.69
2023-04-19T14:40:50.402Z,102056.28
2023-04-19T14:43:18.876Z,102061.78
2023-04-19T14:45:49.993Z,102045.06
2023-04-19T14:48:20.921Z,102059.34
2023-04-19T14:50:51.233Z,102060.84
2023-04-19T14:53:19.704Z,102059.66
2023-04-19T14:55:49.755Z,102061.97
2023-04-19T14:58:18.296Z,102055.03
2023-04-19T15:00:46.857Z,102062.47
2023-04-19T15:03:15.630Z,102058.97
2023-04-19T15:05:44.428Z,102057.84
2023-04-19T15:08:29.111Z,102053.44
2023-04-19T15:11:00.870Z,102057.84
2023-04-19T15:13:29.915Z,102055.94
2023-04-19T15:16:00.557Z,102059.16
2023-04-19T15:18:30.441Z,102054.47
2023-04-19T15:20:58.956Z,102055.09
2023-04-19T15:23:27.682Z,102049.25
2023-04-19T15:25:56.805Z,102061.09
2023-04-19T15:28:26.951Z,102055.94
2023-04-19T15:31:00.924Z,102054.34
2023-04-19T15:33:29.728Z,102051.03
2023-04-19T15:35:58.853Z,102068.31
2023-04-19T15:38:30.254Z,102056.50
2023-04-19T15:41:00.116Z,102053.06
2023-04-19T15:43:30.526Z,102047.91
2023-04-19T15:45:59.069Z,102059.25
2023-04-19T15:48:27.810Z,102056.16
2023-04-19T15:50:56.449Z,102062.34
2023-04-19T15:53:25.211Z,102060.16
2023-04-19T15:55:55.813Z,102054.28
2023-04-19T15:58:25.312Z,102057.56
2023-04-19T16:00:55.479Z,102059.53
2023-04-19T16:03:24.148Z,102061.91
2023-04-19T16:05:53.013Z,102063.13
2023-04-19T16:08:21.656Z,102063.34
2023-04-19T16:10:50.819Z,102059.59
2023-04-19T16:13:19.426Z,102068.91
2023-04-19T16:15:48.106Z,102063.75
2023-04-19T16:18:18.090Z,102071.00
2023-04-19T16:20:46.719Z,102074.34
2023-04-19T16:23:15.248Z,102064.00
2023-04-19T16:25:43.855Z,102062.75
2023-04-19T16:28:12.501Z,102062.25
2023-04-19T16:30:41.053Z,102075.31
2023-04-19T16:33:09.600Z,102072.88
2023-04-19T16:35:39.806Z,102075.09
2023-04-19T16:38:08.346Z,102077.94
2023-04-19T16:40:36.919Z,102087.28
2023-04-19T16:43:06.625Z,102076.59
2023-04-19T16:45:36.816Z,102075.59
2023-04-19T16:48:05.602Z,102080.38
2023-04-19T16:50:34.497Z,102082.72
2023-04-19T16:53:04.354Z,102091.56
2023-04-19T16:55:32.781Z,102085.91
2023-04-19T16:58:01.400Z,102090.19
2023-04-19T17:00:29.879Z,102086.84
2023-04-19T17:02:58.585Z,102081.81
2023-04-19T17:05:27.212Z,102094.66
2023-04-19T17:07:56.832Z,102090.47
2023-04-19T17:10:28.119Z,102107.41
2023-04-19T17:12:56.675Z,102104.03
2023-04-19T17:15:25.360Z,102102.38
2023-04-19T17:17:54.021Z,102102.75
2023-04-19T17:20:22.595Z,102109.84
2023-04-19T17:22:51.205Z,102109.16
2023-04-19T17:25:21.747Z,102108.94
2023-04-19T17:27:52.315Z,102122.34
2023-04-19T17:30:21.052Z,102119.78
2023-04-19T17:32:49.742Z,102113.53
2023-04-19T17:35:18.618Z,102119.09
2023-04-19T17:37:47.286Z,102118.63
2023-04-19T17:40:16.099Z,102123.63
2023-04-19T17:42:44.800Z,102125.84
2023-04-19T17:45:15.094Z,102128.69
2023-04-19T17:47:43.737Z,102134.72
2023-04-19T17:50:14.468Z,102131.84
2023-04-19T17:52:43.149Z,102142.41
2023-04-19T17:55:11.757Z,102133.38
2023-04-19T17:57:40.416Z,102145.53
2023-04-19T18:00:11.980Z,102140.47
2023-04-19T18:02:42.256Z,102141.13
2023-04-19T18:05:13.609Z,102145.66
2023-04-19T18:07:41.992Z,102146.50
2023-04-19T18:10:11.369Z,102157.94
2023-04-19T18:12:39.959Z,102147.88
2023-04-19T18:15:10.098Z,102152.28
2023-04-19T18:17:38.646Z,102143.47
2023-04-19T18:20:10.781Z,102144.66
2023-04-19T18:22:41.071Z,102150.16
2023-04-19T18:25:11.051Z,102150.22
2023-04-19T18:27:39.519Z,102153.59
2023-04-19T18:30:09.392Z,102153.47
2023-04-19T18:32:38.217Z,102153.78
2023-04-19T18:35:10.327Z,102158.47
2023-04-19T18:37:39.222Z,102164.56
2023-04-19T18:40:09.288Z,102166.72
2023-04-19T18:42:38.087Z,102157.34
2023-04-19T18:45:07.692Z,102161.00
2023-04-19T18:47:36.692Z,102158.50
2023-04-19T18:50:06.756Z,102161.31
2023-04-19T18:52:37.023Z,102160.16
2023-04-19T18:55:06.433Z,102162.72
2023-04-19T18:57:35.913Z,102159.38
2023-04-19T19:00:06.742Z,102166.47
2023-04-19T19:02:37.677Z,102163.88
2023-04-19T19:05:08.778Z,102160.75
2023-04-19T19:07:38.956Z,102170.59
2023-04-19T19:10:19.082Z,102165.50
2023-04-19T19:12:50.540Z,102171.59
2023-04-19T19:15:19.469Z,102168.88
2023-04-19T19:17:50.431Z,102171.84
2023-04-19T19:20:20.318Z,102169.94
2023-04-19T19:22:51.440Z,102176.16
2023-04-19T19:25:20.408Z,102180.50
2023-04-19T19:28:06.221Z,102181.25
2023-04-19T19:30:40.088Z,102174.81
2023-04-19T19:33:08.993Z,102180.38
2023-04-19T19:35:39.528Z,102182.59
2023-04-19T19:38:10.018Z,102178.41
2023-04-19T19:41:05.363Z,102182.66
2023-04-19T19:43:27.574Z,102195.25
2023-04-19T19:45:56.135Z,102186.41
2023-04-19T19:48:25.767Z,102192.56
2023-04-19T19:51:20.813Z,102192.56
2023-04-19T19:53:44.680Z,102190.25
2023-04-19T19:56:21.403Z,102187.06
2023-04-19T19:58:51.966Z,102183.41
2023-04-19T20:01:22.700Z,102186.97
2023-04-19T20:03:52.087Z,102193.78
2023-04-19T20:08:56.394Z,102193.00
2023-04-19T20:11:25.783Z,102190.94
2023-04-19T20:13:54.362Z,102187.53
2023-04-19T20:16:23.502Z,102196.88
2023-04-19T20:18:52.881Z,102200.94
2023-04-19T20:21:21.436Z,102189.63
2023-04-19T20:23:50.008Z,102196.06
2023-04-19T20:26:20.206Z,102204.72
2023-04-19T20:28:49.586Z,102197.97
2023-04-19T20:31:18.303Z,102200.84
2023-04-19T20:33:47.418Z,102200.66
2023-04-19T20:36:16.582Z,102204.19
2023-04-19T20:38:46.011Z,102198.53
2023-04-19T20:41:14.749Z,102205.16
2023-04-19T20:43:45.833Z,102201.88
2023-04-19T20:46:14.486Z,102205.69
2023-04-19T20:48:43.381Z,102203.63
2023-04-19T20:51:12.897Z,102205.50
2023-04-19T20:53:41.534Z,102209.63
2023-04-19T20:56:10.232Z,102209.13
2023-04-19T20:58:39.773Z,102200.22
2023-04-19T21:01:11.893Z,102206.44
2023-04-19T21:03:40.865Z,102202.47
2023-04-19T21:06:09.514Z,102197.72
2023-04-19T21:08:38.180Z,102206.53
2023-04-19T21:11:06.864Z,102202.34
2023-04-19T21:13:35.469Z,102213.59
2023-04-19T21:16:04.633Z,102211.75
2023-04-19T21:18:35.216Z,102219.13
2023-04-19T21:21:03.882Z,102225.44
2023-04-19T21:23:32.463Z,102224.03
2023-04-19T21:26:02.790Z,102229.38
2023-04-19T21:28:31.571Z,102223.41
2023-04-19T21:31:00.080Z,102220.72
2023-04-19T21:33:28.747Z,102226.72
2023-04-19T21:35:58.784Z,102237.34
2023-04-19T21:38:27.337Z,102229.38
2023-04-19T21:40:56.044Z,102237.81
2023-04-19T21:43:24.790Z,102238.41
2023-04-19T21:45:53.536Z,102231.88
2023-04-19T21:48:22.246Z,102230.72
2023-04-19T21:50:51.016Z,102231.75
2023-04-19T21:53:21.352Z,102234.09
2023-04-19T21:55:51.134Z,102233.44
2023-04-19T21:58:20.288Z,102222.59
2023-04-19T22:00:49.595Z,102231.41
2023-04-19T22:06:03.919Z,102227.94
2023-04-19T22:08:34.186Z,102232.50
2023-04-19T22:11:02.911Z,102232.09
2023-04-19T22:13:33.694Z,102237.75
2023-04-19T22:16:02.618Z,102237.09
2023-04-19T22:18:31.476Z,102232.03
2023-04-19T22:21:00.131Z,102244.16
2023-04-19T22:23:28.765Z,102235.84
2023-04-19T22:26:00.354Z,102239.13
2023-04-19T22:28:29.205Z,102233.94
2023-04-19T22:30:57.846Z,102237.97
2023-04-19T22:33:26.568Z,102239.44
2023-04-19T22:35:55.261Z,102238.34
2023-04-19T22:38:23.911Z,102247.50
2023-04-19T22:40:52.550Z,102244.25
2023-04-19T22:43:22.898Z,102241.94
2023-04-19T22:45:51.717Z,102251.78
2023-04-19T22:48:20.367Z,102254.66
2023-04-19T22:50:48.832Z,102252.94
2023-04-19T22:53:17.607Z,102253.78
2023-04-19T22:55:47.276Z,102255.00
2023-04-19T22:58:15.807Z,102257.53
2023-04-19T23:00:45.743Z,102256.00
2023-04-19T23:03:14.419Z,102247.69
2023-04-19T23:05:42.889Z,102245.09
2023-04-19T23:08:13.028Z,102250.16
2023-04-19T23:10:42.661Z,102249.63
2023-04-19T23:13:11.469Z,102251.03
2023-04-19T23:15:39.957Z,102250.31
2023-04-19T23:18:10.334Z,102248.94
2023-04-19T23:20:38.869Z,102244.56
2023-04-19T23:23:08.075Z,102239.41
2023-04-19T23:25:36.674Z,102242.03
2023-04-19T23:28:05.261Z,102235.22
2023-04-19T23:30:33.713Z,102241.50
2023-04-19T23:33:02.422Z,102242.44
2023-04-19T23:35:32.371Z,102240.50
2023-04-19T23:38:00.968Z,102251.56
2023-04-19T23:40:29.643Z,102254.75
2023-04-19T23:42:58.235Z,102251.31
2023-04-19T23:45:26.906Z,102257.00
2023-04-19T23:47:55.484Z,102249.44
2023-04-19T23:50:24.137Z,102252.53
2023-04-19T23:52:54.357Z,102259.66
2023-04-19T23:55:23.524Z,102251.19
2023-04-19T23:57:52.672Z,102256.91
